createdAt,value
2019-06-07T00:01:56.530Z,4.65
2019-06-07T00:04:28.119Z,4.67
2019-06-07T00:06:59.338Z,3.77
2019-06-07T00:09:30.586Z,3.67
2019-06-07T00:12:01.745Z,4.30
2019-06-07T00:14:33.098Z,5.28
2019-06-07T00:17:04.355Z,4.80
2019-06-07T00:19:35.581Z,5.33
2019-06-07T00:22:16.467Z,4.65
2019-06-07T00:24:39.593Z,4.37
2019-06-07T00:27:11.634Z,4.10
2019-06-07T00:29:43.622Z,5.12
2019-06-07T00:32:18.369Z,5.25
2019-06-07T00:34:47.714Z,4.95
2019-06-07T00:37:20.667Z,5.03
2019-06-07T00:40:12.876Z,5.50
2019-06-07T00:42:24.671Z,4.87
2019-06-07T00:44:55.956Z,4.80
2019-06-07T00:47:27.129Z,4.97
2019-06-07T00:49:58.237Z,5.30
2019-06-07T00:55:02.419Z,5.45
2019-06-07T00:57:33.579Z,5.65
2019-06-07T01:00:06.606Z,5.80
2019-06-07T01:02:37.878Z,6.62
2019-06-07T01:05:09.601Z,6.37
2019-06-07T01:07:40.853Z,5.78
2019-06-07T01:10:14.540Z,5.62
2019-06-07T01:12:46.735Z,5.65
2019-06-07T01:15:25.600Z,5.60
2019-06-07T01:18:33.861Z,5.70
2019-06-07T01:20:27.028Z,6.10
2019-06-07T01:22:58.140Z,4.97
2019-06-07T01:25:29.373Z,5.05
2019-06-07T01:28:00.666Z,4.85
2019-06-07T01:30:31.936Z,5.78
2019-06-07T01:33:03.197Z,4.72
2019-06-07T01:35:34.524Z,5.55
2019-06-07T01:38:05.809Z,6.03
2019-06-07T01:40:37.038Z,5.65
2019-06-07T01:43:08.304Z,5.17
2019-06-07T01:45:39.698Z,7.05
2019-06-07T01:48:10.980Z,5.97
2019-06-07T01:50:42.297Z,5.62
2019-06-07T01:53:13.457Z,5.35
2019-06-07T01:55:44.668Z,6.33
2019-06-07T01:58:17.049Z,5.65
2019-06-07T02:00:48.273Z,6.17
2019-06-07T02:03:22.309Z,5.42
2019-06-07T02:05:52.632Z,7.05
2019-06-07T02:08:26.436Z,6.60
2019-06-07T02:10:56.883Z,6.40
2019-06-07T02:13:30.609Z,6.17
2019-06-07T02:16:01.041Z,5.42
2019-06-07T02:18:34.396Z,5.90
2019-06-07T02:21:05.333Z,6.37
2019-06-07T02:23:36.477Z,5.80
2019-06-07T02:26:07.776Z,6.65
2019-06-07T02:28:45.656Z,10.40
2019-06-07T02:31:12.070Z,7.28
2019-06-07T02:33:43.235Z,8.40
2019-06-07T02:36:14.567Z,8.53
2019-06-07T02:38:46.673Z,8.05
2019-06-07T02:41:18.011Z,7.92
2019-06-07T02:43:49.316Z,7.67
2019-06-07T02:46:32.584Z,9.48
2019-06-07T02:48:57.358Z,8.05
2019-06-07T02:51:35.834Z,8.53
2019-06-07T02:54:01.651Z,9.93
2019-06-07T02:56:45.424Z,8.28
2019-06-07T02:59:06.092Z,8.33
2019-06-07T03:01:41.735Z,9.00
2019-06-07T03:04:11.273Z,8.98
2019-06-07T03:06:43.807Z,9.03
2019-06-07T03:09:17.045Z,8.78
2019-06-07T03:11:50.273Z,9.28
2019-06-07T03:14:22.438Z,9.50
2019-06-07T03:16:57.173Z,8.70
2019-06-07T03:19:37.744Z,13.68
2019-06-07T03:22:09.313Z,10.72
2019-06-07T03:24:42.467Z,9.23
2019-06-07T03:27:39.392Z,10.38
2019-06-07T03:29:47.242Z,9.93
2019-06-07T03:32:18.628Z,7.40
2019-06-07T03:34:49.793Z,7.62
2019-06-07T03:37:21.019Z,7.40
2019-06-07T03:39:52.177Z,8.20
2019-06-07T03:42:23.404Z,8.00
2019-06-07T03:44:54.576Z,9.53
2019-06-07T03:47:28.377Z,9.00
2019-06-07T03:49:58.825Z,9.90
2019-06-07T03:52:33.222Z,10.55
2019-06-07T03:55:02.951Z,11.18
2019-06-07T03:58:24.781Z,10.63
2019-06-07T04:00:10.415Z,9.65
2019-06-07T04:02:42.280Z,9.80
2019-06-07T04:05:13.596Z,9.78
2019-06-07T04:07:44.841Z,10.50
2019-06-07T04:10:16.010Z,9.20
2019-06-07T04:12:47.251Z,9.55
2019-06-07T04:15:18.429Z,9.65
2019-06-07T04:18:01.267Z,9.58
2019-06-07T04:20:22.554Z,9.03
2019-06-07T04:22:53.728Z,9.38
2019-06-07T04:25:24.887Z,11.18
2019-06-07T04:27:56.212Z,11.28
2019-06-07T04:30:43.783Z,12.85
2019-06-07T04:33:15.318Z,12.33
2019-06-07T04:35:46.519Z,13.10
2019-06-07T04:38:17.735Z,13.55
2019-06-07T04:40:50.411Z,12.68
2019-06-07T04:43:21.635Z,11.05
2019-06-07T04:45:52.829Z,13.00
2019-06-07T04:48:26.096Z,11.93
2019-06-07T04:50:58.869Z,11.68
2019-06-07T04:53:34.215Z,12.40
2019-06-07T04:56:02.973Z,11.60
2019-06-07T04:58:35.706Z,12.05
2019-06-07T05:01:24.405Z,12.50
2019-06-07T05:03:44.057Z,12.80
2019-06-07T05:06:12.834Z,11.68
2019-06-07T05:08:44.099Z,11.63
2019-06-07T05:11:15.223Z,11.60
2019-06-07T05:13:46.434Z,11.90
2019-06-07T05:16:17.596Z,12.53
2019-06-07T05:18:48.945Z,11.03
2019-06-07T05:21:20.148Z,10.93
2019-06-07T05:24:10.341Z,11.30
2019-06-07T05:26:24.281Z,8.63
2019-06-07T05:28:55.506Z,8.25
2019-06-07T05:31:26.890Z,7.72
2019-06-07T05:33:58.129Z,8.20
2019-06-07T05:36:29.761Z,7.58
2019-06-07T05:39:02.239Z,7.08
2019-06-07T05:41:34.173Z,6.75
2019-06-07T05:44:12.678Z,7.17
2019-06-07T05:46:43.415Z,5.85
2019-06-07T05:49:12.591Z,4.58
2019-06-07T05:51:45.062Z,3.77
2019-06-07T05:54:16.492Z,4.35
2019-06-07T05:56:47.745Z,4.35
2019-06-07T05:59:19.012Z,4.75
2019-06-07T06:02:01.881Z,5.40
2019-06-07T06:04:23.134Z,4.28
2019-06-07T06:06:54.327Z,4.03
2019-06-07T06:09:25.787Z,4.35
2019-06-07T06:12:02.261Z,4.28
2019-06-07T06:14:29.895Z,3.90
2019-06-07T06:17:01.096Z,3.83
2019-06-07T06:19:32.347Z,4.12
2019-06-07T06:22:03.564Z,3.85
2019-06-07T06:24:34.792Z,3.70
2019-06-07T06:27:28.542Z,3.40
2019-06-07T06:29:40.539Z,3.50
2019-06-07T06:32:41.009Z,3.60
2019-06-07T06:34:49.358Z,3.50
2019-06-07T06:37:17.630Z,2.50
2019-06-07T06:39:50.130Z,3.50
2019-06-07T06:42:21.446Z,2.72
2019-06-07T06:44:54.125Z,2.72
2019-06-07T06:47:28.189Z,3.02
2019-06-07T06:50:01.093Z,2.55
2019-06-07T06:52:32.349Z,3.40
2019-06-07T06:55:05.694Z,2.85
2019-06-07T06:57:36.891Z,2.72
2019-06-07T07:00:10.484Z,2.87
2019-06-07T07:03:35.019Z,3.00
2019-06-07T07:05:14.710Z,2.80
2019-06-07T07:07:50.078Z,3.70
2019-06-07T07:10:27.877Z,2.62
2019-06-07T07:12:59.051Z,3.75
2019-06-07T07:15:31.446Z,4.25
2019-06-07T07:18:08.453Z,3.80
2019-06-07T07:20:36.480Z,3.50
2019-06-07T07:23:14.195Z,3.12
2019-06-07T07:25:58.255Z,2.90
2019-06-07T07:28:24.487Z,3.02
2019-06-07T07:30:57.306Z,3.37
2019-06-07T07:34:20.164Z,3.60
2019-06-07T07:36:23.251Z,2.35
2019-06-07T07:38:34.511Z,2.15
2019-06-07T07:41:14.582Z,2.22
2019-06-07T07:43:38.629Z,2.60
2019-06-07T07:46:28.288Z,3.02
2019-06-07T07:48:43.575Z,2.30
2019-06-07T07:51:14.865Z,2.50
2019-06-07T07:53:54.597Z,2.75
2019-06-07T07:56:18.923Z,2.70
2019-06-07T07:58:54.695Z,2.62
2019-06-07T08:01:23.119Z,2.17
2019-06-07T08:03:56.135Z,2.22
2019-06-07T08:06:27.403Z,2.70
2019-06-07T08:08:59.142Z,3.10
2019-06-07T08:11:30.458Z,3.40
2019-06-07T08:14:04.688Z,2.77
2019-06-07T08:16:35.885Z,2.58
2019-06-07T08:19:08.561Z,2.62
2019-06-07T08:21:39.787Z,2.60
2019-06-07T08:24:11.003Z,2.45
2019-06-07T08:26:42.276Z,2.60
2019-06-07T08:29:13.467Z,2.52
2019-06-07T08:31:44.723Z,2.40
2019-06-07T08:34:17.314Z,2.33
2019-06-07T08:36:49.948Z,2.37
2019-06-07T08:39:21.506Z,2.17
2019-06-07T08:42:00.557Z,2.75
2019-06-07T08:44:25.877Z,2.08
2019-06-07T08:47:18.414Z,2.52
2019-06-07T08:49:29.905Z,2.50
2019-06-07T08:52:09.871Z,2.10
2019-06-07T08:54:34.102Z,2.22
2019-06-07T08:57:19.953Z,2.00
2019-06-07T08:59:38.202Z,2.17
2019-06-07T09:02:22.854Z,2.33
2019-06-07T09:04:43.244Z,2.20
2019-06-07T09:07:19.450Z,2.77
2019-06-07T09:09:47.499Z,2.17
2019-06-07T09:12:21.517Z,2.17
2019-06-07T09:15:06.898Z,2.10
2019-06-07T09:17:27.905Z,2.83
2019-06-07T09:20:09.401Z,3.33
2019-06-07T09:22:35.500Z,2.37
2019-06-07T09:25:20.061Z,2.33
2019-06-07T09:27:40.891Z,2.17
2019-06-07T09:30:18.634Z,2.60
2019-06-07T09:32:45.779Z,2.45
2019-06-07T09:35:17.883Z,2.70
2019-06-07T09:38:07.294Z,4.15
2019-06-07T09:40:27.566Z,3.92
2019-06-07T09:43:46.730Z,2.83
2019-06-07T09:45:31.328Z,3.00
2019-06-07T09:48:11.558Z,3.30
2019-06-07T09:50:35.492Z,2.75
2019-06-07T09:53:19.030Z,3.33
2019-06-07T09:55:39.974Z,2.60
2019-06-07T09:58:48.572Z,3.15
2019-06-07T10:00:44.270Z,5.05
2019-06-07T10:03:21.252Z,3.60
2019-06-07T10:05:48.520Z,3.20
2019-06-07T10:09:26.218Z,3.15
2019-06-07T10:10:52.720Z,2.80
2019-06-07T10:13:24.144Z,2.40
2019-06-07T10:15:55.302Z,2.40
2019-06-07T10:18:26.653Z,2.27
2019-06-07T10:20:59.327Z,1.90
2019-06-07T10:23:30.973Z,2.10
2019-06-07T10:26:03.965Z,2.33
2019-06-07T10:28:35.511Z,2.27
2019-06-07T10:31:07.810Z,2.70
2019-06-07T10:33:41.311Z,3.17
2019-06-07T10:36:12.567Z,2.60
2019-06-07T10:38:43.820Z,2.85
2019-06-07T10:41:15.295Z,3.00
2019-06-07T10:43:46.554Z,3.40
2019-06-07T10:46:17.818Z,3.98
2019-06-07T10:48:49.065Z,4.75
2019-06-07T10:51:20.187Z,5.37
2019-06-07T10:53:51.550Z,4.80
2019-06-07T10:56:22.815Z,5.30
2019-06-07T10:58:54.617Z,6.80
2019-06-07T11:01:25.858Z,6.55
2019-06-07T11:03:57.275Z,5.80
2019-06-07T11:06:28.508Z,4.15
2019-06-07T11:08:59.740Z,3.33
2019-06-07T11:11:30.980Z,3.15
2019-06-07T11:14:02.251Z,2.80
2019-06-07T11:16:33.578Z,2.90
2019-06-07T11:19:06.059Z,2.92
2019-06-07T11:21:37.757Z,3.12
2019-06-07T11:24:10.144Z,3.10
2019-06-07T11:26:41.519Z,3.40
2019-06-07T11:29:12.983Z,3.65
2019-06-07T11:31:47.281Z,3.15
2019-06-07T11:34:19.430Z,3.67
2019-06-07T11:36:51.184Z,3.58
2019-06-07T11:39:22.643Z,3.67
2019-06-07T11:41:53.856Z,3.62
2019-06-07T11:44:25.154Z,4.03
2019-06-07T11:47:00.431Z,4.62
2019-06-07T11:49:31.732Z,2.92
2019-06-07T11:52:03.276Z,3.58
2019-06-07T11:54:35.482Z,3.90
2019-06-07T11:57:08.841Z,3.72
2019-06-07T11:59:40.146Z,3.70
2019-06-07T12:02:11.533Z,3.35
2019-06-07T12:04:42.966Z,3.40
2019-06-07T12:07:15.939Z,3.67
2019-06-07T12:09:56.536Z,3.25
2019-06-07T12:12:20.782Z,3.00
2019-06-07T12:14:52.037Z,3.40
2019-06-07T12:17:23.305Z,3.22
2019-06-07T12:19:54.756Z,3.12
2019-06-07T12:22:25.967Z,3.42
2019-06-07T12:24:57.261Z,4.85
2019-06-07T12:27:29.354Z,3.87
2019-06-07T12:30:09.208Z,3.70
2019-06-07T12:32:33.587Z,3.65
2019-06-07T12:35:08.714Z,3.60
2019-06-07T12:37:44.262Z,3.40
2019-06-07T12:40:24.511Z,2.95
2019-06-07T12:42:47.572Z,3.25
2019-06-07T12:45:40.164Z,3.45
2019-06-07T12:47:51.668Z,3.75
2019-06-07T12:50:25.304Z,3.70
2019-06-07T12:52:55.952Z,3.58
2019-06-07T12:55:27.348Z,3.72
2019-06-07T12:57:58.621Z,3.50
2019-06-07T13:00:30.361Z,3.58
2019-06-07T13:03:01.502Z,4.25
2019-06-07T13:05:32.705Z,4.25
2019-06-07T13:08:04.795Z,3.30
2019-06-07T13:10:36.062Z,3.77
2019-06-07T13:13:08.858Z,3.22
2019-06-07T13:15:40.330Z,3.22
2019-06-07T13:18:15.014Z,2.85
2019-06-07T13:20:45.134Z,3.42
2019-06-07T13:23:16.490Z,3.47
2019-06-07T13:25:48.012Z,3.35
2019-06-07T13:28:20.742Z,3.50
2019-06-07T13:30:52.912Z,3.20
2019-06-07T13:33:25.763Z,3.27
2019-06-07T13:35:57.231Z,3.12
2019-06-07T13:38:29.072Z,3.02
2019-06-07T13:41:00.391Z,3.17
2019-06-07T13:43:32.366Z,2.70
2019-06-07T13:46:03.559Z,2.70
2019-06-07T13:48:34.736Z,2.80
2019-06-07T13:51:05.988Z,3.20
2019-06-07T13:53:37.172Z,3.55
2019-06-07T13:56:08.455Z,2.92
2019-06-07T13:58:39.567Z,2.75
2019-06-07T14:01:10.771Z,2.90
2019-06-07T14:03:41.929Z,3.83
2019-06-07T14:06:13.163Z,3.42
2019-06-07T14:08:44.379Z,4.50
2019-06-07T14:11:15.593Z,4.65
2019-06-07T14:13:46.744Z,6.40
2019-06-07T14:16:17.944Z,5.83
2019-06-07T14:18:49.107Z,5.90
2019-06-07T14:21:20.467Z,6.40
2019-06-07T14:23:51.673Z,6.78
2019-06-07T14:26:23.262Z,7.40
2019-06-07T14:28:54.516Z,6.42
2019-06-07T14:31:26.271Z,5.83
2019-06-07T14:33:57.610Z,7.80
2019-06-07T14:36:28.960Z,6.10
2019-06-07T14:39:00.382Z,8.25
2019-06-07T14:41:31.929Z,6.87
2019-06-07T14:44:04.528Z,4.33
2019-06-07T14:46:35.782Z,4.70
2019-06-07T14:49:07.410Z,4.87
2019-06-07T14:51:39.101Z,3.95
2019-06-07T14:54:10.296Z,4.85
2019-06-07T14:56:42.028Z,5.28
2019-06-07T14:59:13.796Z,5.80
2019-06-07T15:01:45.022Z,5.65
2019-06-07T15:04:16.182Z,5.58
2019-06-07T15:06:48.020Z,6.12
2019-06-07T15:09:19.643Z,5.37
2019-06-07T15:11:50.970Z,6.62
2019-06-07T15:14:22.150Z,6.90
2019-06-07T15:16:53.366Z,7.25
2019-06-07T15:19:24.576Z,6.83
2019-06-07T15:21:55.779Z,8.35
2019-06-07T15:24:28.101Z,7.83
2019-06-07T15:26:59.328Z,8.58
2019-06-07T15:29:31.683Z,8.68
2019-06-07T15:32:03.016Z,10.20
2019-06-07T15:34:34.369Z,7.53
2019-06-07T15:37:05.605Z,7.83
2019-06-07T15:39:36.864Z,8.63
2019-06-07T15:42:08.059Z,8.80
2019-06-07T15:44:39.552Z,7.92
2019-06-07T15:47:10.834Z,9.38
2019-06-07T15:49:41.985Z,8.85
2019-06-07T15:52:13.212Z,8.25
2019-06-07T15:54:44.290Z,8.33
2019-06-07T15:57:15.555Z,8.73
2019-06-07T15:59:46.736Z,34.10
2019-06-07T16:02:17.944Z,11.12
2019-06-07T16:04:49.032Z,9.45
2019-06-07T16:07:20.253Z,8.58
2019-06-07T16:09:51.438Z,8.68
2019-06-07T16:12:22.644Z,7.92
2019-06-07T16:14:53.809Z,10.35
2019-06-07T16:17:25.037Z,7.90
2019-06-07T16:19:56.248Z,9.98
2019-06-07T16:22:27.498Z,9.55
2019-06-07T16:24:58.660Z,8.78
2019-06-07T16:27:29.913Z,9.65
2019-06-07T16:30:08.785Z,9.08
2019-06-07T16:32:34.994Z,7.90
2019-06-07T16:35:07.706Z,8.73
2019-06-07T16:37:40.654Z,8.85
2019-06-07T16:40:13.462Z,9.28
2019-06-07T16:42:45.213Z,15.63
2019-06-07T16:45:16.631Z,20.00
2019-06-07T16:47:49.764Z,18.60
2019-06-07T16:50:20.748Z,19.32
2019-06-07T16:52:51.999Z,26.00
2019-06-07T16:55:23.272Z,21.57
2019-06-07T16:57:54.889Z,19.87
2019-06-07T17:00:26.073Z,19.87
2019-06-07T17:02:57.338Z,17.02
2019-06-07T17:05:28.526Z,18.52
2019-06-07T17:07:59.757Z,18.20
2019-06-07T17:10:30.933Z,20.15
2019-06-07T17:13:02.174Z,20.27
2019-06-07T17:15:33.355Z,17.40
2019-06-07T17:18:04.590Z,16.67
2019-06-07T17:20:36.248Z,16.90
2019-06-07T17:23:07.512Z,16.37
2019-06-07T17:25:39.442Z,16.77
2019-06-07T17:28:10.803Z,16.73
2019-06-07T17:30:41.925Z,16.95
2019-06-07T17:33:13.136Z,16.45
2019-06-07T17:35:44.731Z,15.88
2019-06-07T17:38:16.026Z,16.48
2019-06-07T17:40:47.221Z,16.80
2019-06-07T17:43:18.415Z,17.23
2019-06-07T17:45:51.565Z,17.17
2019-06-07T17:48:24.043Z,17.57
2019-06-07T17:50:55.355Z,17.57
2019-06-07T17:53:26.602Z,17.85
2019-06-07T17:55:57.747Z,20.08
2019-06-07T17:58:29.075Z,21.73
2019-06-07T18:01:00.244Z,21.85
2019-06-07T18:03:31.448Z,20.40
2019-06-07T18:06:03.801Z,19.27
2019-06-07T18:08:36.060Z,20.65
2019-06-07T18:11:07.219Z,18.02
2019-06-07T18:13:38.360Z,18.65
2019-06-07T18:16:09.521Z,18.35
2019-06-07T18:18:40.736Z,16.12
2019-06-07T18:21:11.923Z,15.48
2019-06-07T18:23:43.139Z,15.50
2019-06-07T18:26:14.295Z,16.82
2019-06-07T18:28:46.590Z,16.15
2019-06-07T18:31:17.805Z,15.68
2019-06-07T18:33:49.037Z,15.38
2019-06-07T18:36:20.203Z,14.60
2019-06-07T18:38:51.442Z,15.13
2019-06-07T18:41:22.625Z,14.98
2019-06-07T18:43:53.845Z,14.85
2019-06-07T18:46:25.876Z,15.45
2019-06-07T18:48:57.115Z,13.93
2019-06-07T18:51:28.284Z,13.72
2019-06-07T18:53:59.665Z,14.35
2019-06-07T18:56:30.857Z,15.50
2019-06-07T18:59:02.204Z,13.75
2019-06-07T19:01:33.419Z,13.20
2019-06-07T19:04:04.634Z,14.28
2019-06-07T19:06:35.917Z,12.70
2019-06-07T19:09:07.453Z,13.62
2019-06-07T19:11:38.647Z,14.35
2019-06-07T19:14:09.882Z,13.50
2019-06-07T19:16:41.040Z,12.73
2019-06-07T19:19:12.285Z,13.35
2019-06-07T19:21:43.459Z,13.32
2019-06-07T19:24:14.698Z,12.95
2019-06-07T19:26:45.868Z,13.18
2019-06-07T19:29:17.102Z,12.18
2019-06-07T19:31:48.306Z,13.22
2019-06-07T19:34:19.591Z,13.25
2019-06-07T19:36:51.469Z,14.18
2019-06-07T19:39:22.738Z,12.03
2019-06-07T19:41:54.021Z,13.25
2019-06-07T19:44:25.300Z,17.57
2019-06-07T19:46:58.496Z,13.65
2019-06-07T19:49:29.753Z,12.60
2019-06-07T19:52:01.127Z,13.28
2019-06-07T19:54:32.485Z,12.55
2019-06-07T19:57:03.770Z,12.05
2019-06-07T19:59:35.020Z,11.95
2019-06-07T20:02:06.226Z,12.50
2019-06-07T20:04:37.436Z,13.03
2019-06-07T20:07:08.592Z,12.85
2019-06-07T20:09:39.812Z,12.05
2019-06-07T20:12:10.908Z,11.68
2019-06-07T20:14:42.160Z,13.35
2019-06-07T20:17:13.426Z,12.98
2019-06-07T20:19:44.629Z,12.47
2019-06-07T20:22:15.802Z,13.40
2019-06-07T20:24:47.040Z,12.65
2019-06-07T20:27:18.180Z,12.73
2019-06-07T20:29:49.428Z,12.73
2019-06-07T20:32:20.614Z,11.60
2019-06-07T20:34:51.866Z,12.30
2019-06-07T20:37:23.194Z,11.83
2019-06-07T20:39:54.436Z,12.78
2019-06-07T20:42:25.625Z,12.78
2019-06-07T20:44:57.581Z,12.75
2019-06-07T20:47:29.723Z,12.20
2019-06-07T20:50:02.336Z,11.15
2019-06-07T20:52:33.585Z,11.70
2019-06-07T20:55:06.975Z,11.15
2019-06-07T20:57:38.352Z,13.08
2019-06-07T21:00:20.620Z,12.35
2019-06-07T21:02:43.692Z,12.65
2019-06-07T21:05:14.934Z,12.53
2019-06-07T21:07:46.094Z,13.75
2019-06-07T21:10:17.323Z,12.68
2019-06-07T21:12:48.494Z,13.58
2019-06-07T21:15:19.716Z,14.58
2019-06-07T21:17:50.885Z,13.70
2019-06-07T21:20:22.129Z,14.53
2019-06-07T21:22:53.352Z,13.75
2019-06-07T21:25:24.767Z,15.20
2019-06-07T21:27:55.955Z,14.30
2019-06-07T21:30:27.185Z,14.23
2019-06-07T21:32:58.369Z,12.90
2019-06-07T21:35:29.514Z,12.70
2019-06-07T21:38:01.903Z,12.78
2019-06-07T21:40:33.108Z,11.85
2019-06-07T21:43:04.544Z,11.03
2019-06-07T21:45:35.777Z,10.80
2019-06-07T21:48:08.837Z,11.73
2019-06-07T21:50:40.108Z,9.38
2019-06-07T21:53:11.248Z,8.73
2019-06-07T21:55:42.446Z,6.50
2019-06-07T21:58:13.655Z,5.83
2019-06-07T22:00:56.824Z,4.50
2019-06-07T22:03:28.026Z,4.17
2019-06-07T22:05:59.250Z,4.60
2019-06-07T22:08:30.420Z,5.60
2019-06-07T22:11:01.622Z,4.25
2019-06-07T22:13:32.817Z,3.98
2019-06-07T22:16:04.138Z,3.77
2019-06-07T22:18:35.304Z,3.95
2019-06-07T22:21:06.518Z,4.28
2019-06-07T22:23:37.665Z,4.22
2019-06-07T22:26:09.043Z,4.72
2019-06-07T22:28:40.215Z,4.75
2019-06-07T22:31:12.761Z,5.25
2019-06-07T22:33:43.943Z,5.55
2019-06-07T22:36:15.998Z,5.85
2019-06-07T22:38:47.254Z,5.37
2019-06-07T22:41:18.464Z,6.28
2019-06-07T22:43:49.628Z,5.12
2019-06-07T22:46:35.918Z,5.00
2019-06-07T22:48:56.181Z,4.47
2019-06-07T22:51:27.406Z,5.05
2019-06-07T22:53:58.601Z,5.90
2019-06-07T22:56:31.403Z,5.42
2019-06-07T22:59:02.573Z,4.80
2019-06-07T23:01:33.958Z,4.58
2019-06-07T23:04:05.137Z,5.62
2019-06-07T23:06:36.364Z,5.80
2019-06-07T23:09:08.822Z,5.03
2019-06-07T23:11:40.113Z,5.83
2019-06-07T23:14:11.297Z,5.35
2019-06-07T23:16:55.029Z,5.37
2019-06-07T23:19:16.251Z,5.17
2019-06-07T23:21:47.487Z,7.22
2019-06-07T23:24:20.132Z,5.92
2019-06-07T23:26:51.697Z,6.12
2019-06-07T23:29:22.912Z,5.78
2019-06-07T23:32:10.491Z,6.28
2019-06-07T23:34:41.694Z,5.62
2019-06-07T23:37:13.097Z,5.80
2019-06-07T23:39:44.292Z,5.95
2019-06-07T23:42:15.592Z,5.40
2019-06-07T23:44:46.726Z,5.62
2019-06-07T23:47:20.122Z,5.42
2019-06-07T23:49:51.830Z,5.28
2019-06-07T23:52:23.040Z,5.40
2019-06-07T23:54:54.126Z,5.50
2019-06-07T23:57:25.342Z,5.70
2019-06-07T23:59:56.504Z,5.78
